sensor_id;sensor_type;location;lat;lon;timestamp;P1;durP1;ratioP1;P2;durP2;ratioP2
72557;SDS011;60583;50.094;8.748;2023-01-01T00:02:12;84.57;;;54.83;;
72557;SDS011;60583;50.094;8.748;2023-01-01T00:04:37;77.72;;;52.20;;
72557;SDS011;60583;50.094;8.748;2023-01-01T00:07:03;75.60;;;49.17;;
72557;SDS011;60583;50.094;8.748;2023-01-01T00:09:28;69.47;;;45.90;;
72557;SDS011;60583;50.094;8.748;2023-01-01T00:12:12;59.13;;;40.92;;
72557;SDS011;60583;50.094;8.748;2023-01-01T00:14:37;57.45;;;37.90;;
72557;SDS011;60583;50.094;8.748;2023-01-01T00:17:03;55.03;;;34.50;;
72557;SDS011;60583;50.094;8.748;2023-01-01T00:19:29;49.40;;;32.00;;
72557;SDS011;60583;50.094;8.748;2023-01-01T00:21:54;41.15;;;30.10;;
72557;SDS011;60583;50.094;8.748;2023-01-01T00:24:20;40.45;;;28.88;;
72557;SDS011;60583;50.094;8.748;2023-01-01T00:26:45;40.08;;;26.17;;
72557;SDS011;60583;50.094;8.748;2023-01-01T00:29:10;39.75;;;26.70;;
72557;SDS011;60583;50.094;8.748;2023-01-01T00:31:36;37.40;;;24.00;;
72557;SDS011;60583;50.094;8.748;2023-01-01T00:34:01;36.03;;;24.70;;
72557;SDS011;60583;50.094;8.748;2023-01-01T00:36:27;37.55;;;25.90;;
72557;SDS011;60583;50.094;8.748;2023-01-01T00:38:53;38.30;;;26.20;;
72557;SDS011;60583;50.094;8.748;2023-01-01T00:41:19;36.50;;;23.67;;
72557;SDS011;60583;50.094;8.748;2023-01-01T00:43:45;33.72;;;23.10;;
72557;SDS011;60583;50.094;8.748;2023-01-01T00:46:10;33.92;;;22.63;;
72557;SDS011;60583;50.094;8.748;2023-01-01T00:48:37;35.75;;;24.30;;
72557;SDS011;60583;50.094;8.748;2023-01-01T00:51:03;38.65;;;25.48;;
72557;SDS011;60583;50.094;8.748;2023-01-01T00:53:29;42.13;;;27.17;;
72557;SDS011;60583;50.094;8.748;2023-01-01T00:55:54;50.45;;;29.75;;
72557;SDS011;60583;50.094;8.748;2023-01-01T00:58:21;49.83;;;32.45;;
72557;SDS011;60583;50.094;8.748;2023-01-01T01:00:48;54.33;;;35.22;;
72557;SDS011;60583;50.094;8.748;2023-01-01T01:03:15;58.05;;;37.63;;
72557;SDS011;60583;50.094;8.748;2023-01-01T01:08:27;57.30;;;35.78;;
72557;SDS011;60583;50.094;8.748;2023-01-01T01:10:53;55.95;;;36.33;;
72557;SDS011;60583;50.094;8.748;2023-01-01T01:13:19;62.95;;;39.55;;
72557;SDS011;60583;50.094;8.748;2023-01-01T01:15:46;65.90;;;40.00;;
72557;SDS011;60583;50.094;8.748;2023-01-01T01:18:11;63.95;;;41.50;;
72557;SDS011;60583;50.094;8.748;2023-01-01T01:20:37;66.53;;;42.03;;
72557;SDS011;60583;50.094;8.748;2023-01-01T01:23:03;65.65;;;42.15;;
72557;SDS011;60583;50.094;8.748;2023-01-01T01:25:28;62.45;;;39.15;;
72557;SDS011;60583;50.094;8.748;2023-01-01T01:27:54;62.03;;;39.88;;
72557;SDS011;60583;50.094;8.748;2023-01-01T01:30:19;59.30;;;37.08;;
72557;SDS011;60583;50.094;8.748;2023-01-01T01:32:45;59.83;;;37.00;;
72557;SDS011;60583;50.094;8.748;2023-01-01T01:35:10;58.30;;;36.05;;
72557;SDS011;60583;50.094;8.748;2023-01-01T01:37:35;56.22;;;35.35;;
72557;SDS011;60583;50.094;8.748;2023-01-01T01:40:01;54.05;;;34.22;;
72557;SDS011;60583;50.094;8.748;2023-01-01T01:42:26;52.92;;;32.55;;
72557;SDS011;60583;50.094;8.748;2023-01-01T01:50:34;47.78;;;30.50;;
72557;SDS011;60583;50.094;8.748;2023-01-01T01:53:05;46.47;;;31.40;;
72557;SDS011;60583;50.094;8.748;2023-01-01T01:55:37;51.90;;;31.50;;
72557;SDS011;60583;50.094;8.748;2023-01-01T01:58:04;50.10;;;30.67;;
72557;SDS011;60583;50.094;8.748;2023-01-01T02:00:33;50.55;;;33.78;;
72557;SDS011;60583;50.094;8.748;2023-01-01T02:03:01;48.53;;;30.10;;
72557;SDS011;60583;50.094;8.748;2023-01-01T02:05:30;50.75;;;30.90;;
72557;SDS011;60583;50.094;8.748;2023-01-01T02:07:56;46.88;;;29.33;;
72557;SDS011;60583;50.094;8.748;2023-01-01T02:10:22;47.22;;;30.10;;
72557;SDS011;60583;50.094;8.748;2023-01-01T02:12:48;43.78;;;28.05;;
72557;SDS011;60583;50.094;8.748;2023-01-01T02:15:13;44.47;;;27.95;;
72557;SDS011;60583;50.094;8.748;2023-01-01T02:17:43;46.38;;;28.15;;
72557;SDS011;60583;50.094;8.748;2023-01-01T02:23:09;44.63;;;26.27;;
72557;SDS011;60583;50.094;8.748;2023-01-01T02:26:07;38.80;;;24.00;;
72557;SDS011;60583;50.094;8.748;2023-01-01T02:31:09;40.70;;;23.60;;
72557;SDS011;60583;50.094;8.748;2023-01-01T02:33:39;35.03;;;21.60;;
72557;SDS011;60583;50.094;8.748;2023-01-01T02:36:08;34.17;;;20.73;;
72557;SDS011;60583;50.094;8.748;2023-01-01T02:38:42;33.03;;;20.30;;
72557;SDS011;60583;50.094;8.748;2023-01-01T02:41:15;30.20;;;19.55;;
72557;SDS011;60583;50.094;8.748;2023-01-01T02:43:52;33.67;;;20.58;;
72557;SDS011;60583;50.094;8.748;2023-01-01T02:46:18;33.03;;;19.85;;
72557;SDS011;60583;50.094;8.748;2023-01-01T02:48:44;32.53;;;21.00;;
72557;SDS011;60583;50.094;8.748;2023-01-01T02:56:46;31.90;;;19.20;;
72557;SDS011;60583;50.094;8.748;2023-01-01T02:59:21;29.35;;;18.45;;
72557;SDS011;60583;50.094;8.748;2023-01-01T03:05:11;32.55;;;19.08;;
72557;SDS011;60583;50.094;8.748;2023-01-01T03:10:36;29.38;;;18.65;;
72557;SDS011;60583;50.094;8.748;2023-01-01T03:13:27;33.67;;;20.00;;
72557;SDS011;60583;50.094;8.748;2023-01-01T03:16:01;29.17;;;18.80;;
72557;SDS011;60583;50.094;8.748;2023-01-01T03:18:56;30.98;;;18.75;;
72557;SDS011;60583;50.094;8.748;2023-01-01T03:21:41;34.67;;;21.70;;
72557;SDS011;60583;50.094;8.748;2023-01-01T03:24:25;31.50;;;19.77;;
72557;SDS011;60583;50.094;8.748;2023-01-01T03:27:01;30.92;;;19.13;;
72557;SDS011;60583;50.094;8.748;2023-01-01T03:29:30;31.45;;;19.55;;
72557;SDS011;60583;50.094;8.748;2023-01-01T03:32:02;30.17;;;18.65;;
72557;SDS011;60583;50.094;8.748;2023-01-01T03:34:36;29.92;;;18.95;;
72557;SDS011;60583;50.094;8.748;2023-01-01T03:37:09;31.83;;;18.80;;
72557;SDS011;60583;50.094;8.748;2023-01-01T03:39:44;30.25;;;18.17;;
72557;SDS011;60583;50.094;8.748;2023-01-01T03:42:22;30.25;;;18.85;;
72557;SDS011;60583;50.094;8.748;2023-01-01T03:45:09;32.28;;;19.42;;
72557;SDS011;60583;50.094;8.748;2023-01-01T03:47:51;30.25;;;19.15;;
72557;SDS011;60583;50.094;8.748;2023-01-01T03:50:16;30.75;;;18.90;;
72557;SDS011;60583;50.094;8.748;2023-01-01T03:52:49;30.42;;;17.20;;
72557;SDS011;60583;50.094;8.748;2023-01-01T03:55:38;26.70;;;16.40;;
72557;SDS011;60583;50.094;8.748;2023-01-01T03:58:17;27.08;;;16.55;;
72557;SDS011;60583;50.094;8.748;2023-01-01T04:00:52;27.80;;;15.95;;
72557;SDS011;60583;50.094;8.748;2023-01-01T04:03:23;29.45;;;16.67;;
72557;SDS011;60583;50.094;8.748;2023-01-01T04:05:51;26.02;;;15.70;;
72557;SDS011;60583;50.094;8.748;2023-01-01T04:08:16;27.23;;;15.77;;
72557;SDS011;60583;50.094;8.748;2023-01-01T04:10:43;24.80;;;15.32;;
72557;SDS011;60583;50.094;8.748;2023-01-01T04:13:14;25.83;;;15.25;;
72557;SDS011;60583;50.094;8.748;2023-01-01T04:15:39;29.13;;;16.35;;
72557;SDS011;60583;50.094;8.748;2023-01-01T04:18:05;29.65;;;16.67;;
72557;SDS011;60583;50.094;8.748;2023-01-01T04:20:30;26.90;;;17.30;;
72557;SDS011;60583;50.094;8.748;2023-01-01T04:22:56;26.77;;;15.50;;
72557;SDS011;60583;50.094;8.748;2023-01-01T04:25:23;26.60;;;15.13;;
72557;SDS011;60583;50.094;8.748;2023-01-01T04:27:48;24.13;;;14.05;;
72557;SDS011;60583;50.094;8.748;2023-01-01T04:30:14;24.75;;;14.85;;
72557;SDS011;60583;50.094;8.748;2023-01-01T04:32:39;26.02;;;16.45;;
72557;SDS011;60583;50.094;8.748;2023-01-01T04:35:06;25.63;;;15.38;;
72557;SDS011;60583;50.094;8.748;2023-01-01T04:37:35;25.55;;;15.25;;
72557;SDS011;60583;50.094;8.748;2023-01-01T04:40:01;26.70;;;14.73;;
72557;SDS011;60583;50.094;8.748;2023-01-01T04:42:27;21.50;;;13.65;;
72557;SDS011;60583;50.094;8.748;2023-01-01T04:44:52;23.52;;;13.82;;
72557;SDS011;60583;50.094;8.748;2023-01-01T04:47:17;27.58;;;15.65;;
72557;SDS011;60583;50.094;8.748;2023-01-01T04:49:43;23.80;;;14.45;;
72557;SDS011;60583;50.094;8.748;2023-01-01T04:52:08;23.88;;;14.95;;
72557;SDS011;60583;50.094;8.748;2023-01-01T04:54:34;25.77;;;14.98;;
72557;SDS011;60583;50.094;8.748;2023-01-01T04:56:59;23.20;;;14.10;;
72557;SDS011;60583;50.094;8.748;2023-01-01T04:59:24;26.15;;;14.65;;
72557;SDS011;60583;50.094;8.748;2023-01-01T05:01:50;27.25;;;15.50;;
72557;SDS011;60583;50.094;8.748;2023-01-01T05:04:15;21.17;;;12.60;;
72557;SDS011;60583;50.094;8.748;2023-01-01T05:06:41;23.80;;;13.85;;
72557;SDS011;60583;50.094;8.748;2023-01-01T05:09:08;25.70;;;14.50;;
72557;SDS011;60583;50.094;8.748;2023-01-01T05:11:34;22.60;;;12.85;;
72557;SDS011;60583;50.094;8.748;2023-01-01T05:14:00;23.55;;;12.98;;
72557;SDS011;60583;50.094;8.748;2023-01-01T05:16:27;22.23;;;12.93;;
72557;SDS011;60583;50.094;8.748;2023-01-01T05:18:54;21.90;;;12.32;;
72557;SDS011;60583;50.094;8.748;2023-01-01T05:21:29;19.27;;;11.18;;
72557;SDS011;60583;50.094;8.748;2023-01-01T05:23:57;21.17;;;10.98;;
72557;SDS011;60583;50.094;8.748;2023-01-01T05:26:25;18.23;;;10.13;;
72557;SDS011;60583;50.094;8.748;2023-01-01T05:28:52;18.80;;;9.95;;
72557;SDS011;60583;50.094;8.748;2023-01-01T05:31:20;16.92;;;9.35;;
72557;SDS011;60583;50.094;8.748;2023-01-01T05:33:47;17.25;;;9.40;;
72557;SDS011;60583;50.094;8.748;2023-01-01T05:36:14;15.02;;;8.35;;
72557;SDS011;60583;50.094;8.748;2023-01-01T05:38:50;14.57;;;8.30;;
72557;SDS011;60583;50.094;8.748;2023-01-01T05:41:16;13.82;;;7.75;;
72557;SDS011;60583;50.094;8.748;2023-01-01T05:43:43;14.77;;;8.27;;
72557;SDS011;60583;50.094;8.748;2023-01-01T05:46:10;14.80;;;8.23;;
72557;SDS011;60583;50.094;8.748;2023-01-01T05:48:37;13.60;;;8.10;;
72557;SDS011;60583;50.094;8.748;2023-01-01T05:51:03;13.45;;;7.45;;
72557;SDS011;60583;50.094;8.748;2023-01-01T05:53:30;17.63;;;8.25;;
72557;SDS011;60583;50.094;8.748;2023-01-01T05:55:56;14.68;;;8.27;;
72557;SDS011;60583;50.094;8.748;2023-01-01T05:58:22;15.80;;;7.75;;
72557;SDS011;60583;50.094;8.748;2023-01-01T06:00:48;12.43;;;7.72;;
72557;SDS011;60583;50.094;8.748;2023-01-01T06:03:13;14.45;;;7.30;;
72557;SDS011;60583;50.094;8.748;2023-01-01T06:05:39;12.38;;;7.45;;
72557;SDS011;60583;50.094;8.748;2023-01-01T06:08:04;11.07;;;6.50;;
72557;SDS011;60583;50.094;8.748;2023-01-01T06:10:29;12.82;;;6.75;;
72557;SDS011;60583;50.094;8.748;2023-01-01T06:12:55;12.75;;;6.18;;
72557;SDS011;60583;50.094;8.748;2023-01-01T06:15:23;12.52;;;6.28;;
72557;SDS011;60583;50.094;8.748;2023-01-01T06:17:49;10.43;;;6.15;;
72557;SDS011;60583;50.094;8.748;2023-01-01T06:20:15;11.45;;;6.32;;
72557;SDS011;60583;50.094;8.748;2023-01-01T06:22:41;13.88;;;6.53;;
72557;SDS011;60583;50.094;8.748;2023-01-01T06:25:07;9.77;;;5.70;;
72557;SDS011;60583;50.094;8.748;2023-01-01T06:27:36;10.63;;;5.97;;
72557;SDS011;60583;50.094;8.748;2023-01-01T06:30:05;12.23;;;6.20;;
72557;SDS011;60583;50.094;8.748;2023-01-01T06:32:31;11.20;;;6.00;;
72557;SDS011;60583;50.094;8.748;2023-01-01T06:34:57;10.05;;;5.38;;
72557;SDS011;60583;50.094;8.748;2023-01-01T06:37:22;11.13;;;5.60;;
72557;SDS011;60583;50.094;8.748;2023-01-01T06:39:48;11.27;;;4.95;;
72557;SDS011;60583;50.094;8.748;2023-01-01T06:42:13;9.07;;;4.97;;
72557;SDS011;60583;50.094;8.748;2023-01-01T06:44:39;9.52;;;4.88;;
72557;SDS011;60583;50.094;8.748;2023-01-01T06:47:04;9.55;;;5.00;;
72557;SDS011;60583;50.094;8.748;2023-01-01T06:49:30;9.77;;;5.20;;
72557;SDS011;60583;50.094;8.748;2023-01-01T06:51:55;10.30;;;5.15;;
72557;SDS011;60583;50.094;8.748;2023-01-01T06:54:20;9.70;;;5.30;;
72557;SDS011;60583;50.094;8.748;2023-01-01T06:56:46;10.98;;;5.50;;
72557;SDS011;60583;50.094;8.748;2023-01-01T06:59:11;9.93;;;5.53;;
72557;SDS011;60583;50.094;8.748;2023-01-01T07:01:37;10.95;;;5.32;;
72557;SDS011;60583;50.094;8.748;2023-01-01T07:04:06;12.90;;;5.45;;
72557;SDS011;60583;50.094;8.748;2023-01-01T07:06:35;8.10;;;5.00;;
72557;SDS011;60583;50.094;8.748;2023-01-01T07:09:01;8.10;;;4.55;;
72557;SDS011;60583;50.094;8.748;2023-01-01T07:11:27;11.40;;;4.63;;
72557;SDS011;60583;50.094;8.748;2023-01-01T07:13:53;9.85;;;4.80;;
72557;SDS011;60583;50.094;8.748;2023-01-01T07:16:19;10.45;;;4.65;;
72557;SDS011;60583;50.094;8.748;2023-01-01T07:18:45;9.75;;;4.50;;
72557;SDS011;60583;50.094;8.748;2023-01-01T07:23:47;11.65;;;4.18;;
72557;SDS011;60583;50.094;8.748;2023-01-01T07:26:12;8.52;;;4.53;;
72557;SDS011;60583;50.094;8.748;2023-01-01T07:28:37;7.70;;;4.10;;
72557;SDS011;60583;50.094;8.748;2023-01-01T07:31:03;7.68;;;3.83;;
72557;SDS011;60583;50.094;8.748;2023-01-01T07:33:28;6.32;;;3.65;;
72557;SDS011;60583;50.094;8.748;2023-01-01T07:35:54;8.50;;;3.42;;
72557;SDS011;60583;50.094;8.748;2023-01-01T07:38:19;7.70;;;3.60;;
72557;SDS011;60583;50.094;8.748;2023-01-01T07:40:44;9.70;;;3.38;;
72557;SDS011;60583;50.094;8.748;2023-01-01T07:43:10;7.82;;;3.40;;
72557;SDS011;60583;50.094;8.748;2023-01-01T07:45:36;8.38;;;3.30;;
72557;SDS011;60583;50.094;8.748;2023-01-01T07:48:02;8.18;;;3.50;;
72557;SDS011;60583;50.094;8.748;2023-01-01T07:50:31;7.18;;;3.53;;
72557;SDS011;60583;50.094;8.748;2023-01-01T07:52:57;7.82;;;2.92;;
72557;SDS011;60583;50.094;8.748;2023-01-01T07:55:22;8.18;;;3.38;;
72557;SDS011;60583;50.094;8.748;2023-01-01T07:57:48;7.28;;;3.53;;
72557;SDS011;60583;50.094;8.748;2023-01-01T08:00:15;6.35;;;3.17;;
72557;SDS011;60583;50.094;8.748;2023-01-01T08:02:42;6.20;;;3.15;;
72557;SDS011;60583;50.094;8.748;2023-01-01T08:05:08;9.27;;;3.40;;
72557;SDS011;60583;50.094;8.748;2023-01-01T08:07:34;7.35;;;3.42;;
72557;SDS011;60583;50.094;8.748;2023-01-01T08:09:59;7.45;;;3.47;;
72557;SDS011;60583;50.094;8.748;2023-01-01T08:12:25;8.75;;;3.80;;
72557;SDS011;60583;50.094;8.748;2023-01-01T08:14:51;7.78;;;2.83;;
72557;SDS011;60583;50.094;8.748;2023-01-01T08:17:16;6.30;;;3.00;;
72557;SDS011;60583;50.094;8.748;2023-01-01T08:19:42;6.10;;;3.35;;
72557;SDS011;60583;50.094;8.748;2023-01-01T08:22:09;6.35;;;2.97;;
72557;SDS011;60583;50.094;8.748;2023-01-01T08:24:35;7.68;;;3.58;;
72557;SDS011;60583;50.094;8.748;2023-01-01T08:27:00;5.45;;;2.90;;
72557;SDS011;60583;50.094;8.748;2023-01-01T08:29:25;7.00;;;3.00;;
72557;SDS011;60583;50.094;8.748;2023-01-01T08:31:51;5.25;;;3.05;;
72557;SDS011;60583;50.094;8.748;2023-01-01T08:34:16;6.10;;;3.00;;
72557;SDS011;60583;50.094;8.748;2023-01-01T08:36:41;6.82;;;3.20;;
72557;SDS011;60583;50.094;8.748;2023-01-01T08:39:07;7.85;;;3.47;;
72557;SDS011;60583;50.094;8.748;2023-01-01T08:41:33;7.65;;;3.17;;
72557;SDS011;60583;50.094;8.748;2023-01-01T08:43:59;8.30;;;3.00;;
72557;SDS011;60583;50.094;8.748;2023-01-01T08:46:24;7.88;;;4.00;;
72557;SDS011;60583;50.094;8.748;2023-01-01T08:48:50;10.68;;;4.55;;
72557;SDS011;60583;50.094;8.748;2023-01-01T08:51:15;7.43;;;2.95;;
72557;SDS011;60583;50.094;8.748;2023-01-01T08:53:40;7.43;;;2.83;;
72557;SDS011;60583;50.094;8.748;2023-01-01T08:56:07;8.25;;;3.35;;
72557;SDS011;60583;50.094;8.748;2023-01-01T08:58:35;6.93;;;2.78;;
72557;SDS011;60583;50.094;8.748;2023-01-01T09:01:02;7.25;;;3.05;;
72557;SDS011;60583;50.094;8.748;2023-01-01T09:03:27;6.80;;;3.30;;
72557;SDS011;60583;50.094;8.748;2023-01-01T09:05:53;7.13;;;3.00;;
72557;SDS011;60583;50.094;8.748;2023-01-01T09:08:19;5.53;;;3.15;;
72557;SDS011;60583;50.094;8.748;2023-01-01T09:10:45;8.95;;;3.50;;
72557;SDS011;60583;50.094;8.748;2023-01-01T09:13:11;6.90;;;3.00;;
72557;SDS011;60583;50.094;8.748;2023-01-01T09:15:38;7.82;;;3.38;;
72557;SDS011;60583;50.094;8.748;2023-01-01T09:18:03;7.70;;;3.20;;
72557;SDS011;60583;50.094;8.748;2023-01-01T09:20:29;8.25;;;3.08;;
72557;SDS011;60583;50.094;8.748;2023-01-01T09:22:54;7.38;;;2.75;;
72557;SDS011;60583;50.094;8.748;2023-01-01T09:25:20;7.50;;;2.75;;
72557;SDS011;60583;50.094;8.748;2023-01-01T09:27:45;6.32;;;2.97;;
72557;SDS011;60583;50.094;8.748;2023-01-01T09:30:11;6.38;;;3.10;;
72557;SDS011;60583;50.094;8.748;2023-01-01T09:32:36;6.32;;;2.80;;
72557;SDS011;60583;50.094;8.748;2023-01-01T09:35:02;6.60;;;2.50;;
72557;SDS011;60583;50.094;8.748;2023-01-01T09:37:27;6.38;;;2.70;;
72557;SDS011;60583;50.094;8.748;2023-01-01T09:39:53;6.70;;;2.60;;
72557;SDS011;60583;50.094;8.748;2023-01-01T09:45:10;7.15;;;2.92;;
72557;SDS011;60583;50.094;8.748;2023-01-01T09:47:46;5.03;;;2.30;;
72557;SDS011;60583;50.094;8.748;2023-01-01T09:52:56;8.23;;;2.90;;
72557;SDS011;60583;50.094;8.748;2023-01-01T09:55:33;5.63;;;2.95;;
72557;SDS011;60583;50.094;8.748;2023-01-01T09:58:07;8.43;;;2.72;;
72557;SDS011;60583;50.094;8.748;2023-01-01T10:00:34;6.70;;;2.80;;
72557;SDS011;60583;50.094;8.748;2023-01-01T10:11:10;5.30;;;2.33;;
72557;SDS011;60583;50.094;8.748;2023-01-01T10:13:53;7.45;;;2.88;;
72557;SDS011;60583;50.094;8.748;2023-01-01T10:16:31;5.95;;;2.53;;
72557;SDS011;60583;50.094;8.748;2023-01-01T10:19:10;7.88;;;2.92;;
72557;SDS011;60583;50.094;8.748;2023-01-01T10:22:06;7.53;;;2.58;;
72557;SDS011;60583;50.094;8.748;2023-01-01T10:25:20;6.70;;;2.55;;
72557;SDS011;60583;50.094;8.748;2023-01-01T10:27:38;7.03;;;2.88;;
72557;SDS011;60583;50.094;8.748;2023-01-01T10:30:15;8.25;;;3.00;;
72557;SDS011;60583;50.094;8.748;2023-01-01T10:32:45;6.38;;;2.40;;
72557;SDS011;60583;50.094;8.748;2023-01-01T10:35:13;5.38;;;2.17;;
72557;SDS011;60583;50.094;8.748;2023-01-01T10:37:41;6.05;;;2.38;;
72557;SDS011;60583;50.094;8.748;2023-01-01T10:40:17;6.15;;;2.25;;
72557;SDS011;60583;50.094;8.748;2023-01-01T10:42:51;5.13;;;2.40;;
72557;SDS011;60583;50.094;8.748;2023-01-01T10:45:19;9.45;;;3.08;;
72557;SDS011;60583;50.094;8.748;2023-01-01T10:50:54;7.05;;;2.10;;
72557;SDS011;60583;50.094;8.748;2023-01-01T10:56:13;6.03;;;2.30;;
72557;SDS011;60583;50.094;8.748;2023-01-01T10:58:44;7.32;;;2.38;;
72557;SDS011;60583;50.094;8.748;2023-01-01T11:06:39;7.53;;;2.75;;
72557;SDS011;60583;50.094;8.748;2023-01-01T11:09:22;5.65;;;2.20;;
72557;SDS011;60583;50.094;8.748;2023-01-01T11:11:54;6.68;;;2.10;;
72557;SDS011;60583;50.094;8.748;2023-01-01T11:14:26;5.68;;;2.20;;
72557;SDS011;60583;50.094;8.748;2023-01-01T11:16:54;5.95;;;2.42;;
72557;SDS011;60583;50.094;8.748;2023-01-01T11:19:31;7.78;;;2.65;;
72557;SDS011;60583;50.094;8.748;2023-01-01T11:22:00;7.85;;;2.22;;
72557;SDS011;60583;50.094;8.748;2023-01-01T11:24:27;5.43;;;2.38;;
72557;SDS011;60583;50.094;8.748;2023-01-01T11:29:47;6.90;;;2.65;;
72557;SDS011;60583;50.094;8.748;2023-01-01T11:32:22;6.75;;;2.53;;
72557;SDS011;60583;50.094;8.748;2023-01-01T11:34:56;8.85;;;2.55;;
72557;SDS011;60583;50.094;8.748;2023-01-01T11:37:25;11.52;;;3.67;;
72557;SDS011;60583;50.094;8.748;2023-01-01T11:39:54;6.38;;;2.30;;
72557;SDS011;60583;50.094;8.748;2023-01-01T11:42:22;4.60;;;2.40;;
72557;SDS011;60583;50.094;8.748;2023-01-01T11:44:53;5.43;;;2.28;;
72557;SDS011;60583;50.094;8.748;2023-01-01T11:47:27;6.63;;;2.00;;
72557;SDS011;60583;50.094;8.748;2023-01-01T11:49:56;5.18;;;1.90;;
72557;SDS011;60583;50.094;8.748;2023-01-01T11:52:49;7.75;;;2.20;;
72557;SDS011;60583;50.094;8.748;2023-01-01T11:57:54;5.72;;;2.63;;
72557;SDS011;60583;50.094;8.748;2023-01-01T12:00:25;4.63;;;2.20;;
72557;SDS011;60583;50.094;8.748;2023-01-01T12:03:05;6.40;;;2.30;;
72557;SDS011;60583;50.094;8.748;2023-01-01T12:05:46;5.22;;;1.98;;
72557;SDS011;60583;50.094;8.748;2023-01-01T12:08:18;5.72;;;2.10;;
72557;SDS011;60583;50.094;8.748;2023-01-01T12:13:22;5.65;;;2.40;;
72557;SDS011;60583;50.094;8.748;2023-01-01T12:18:41;8.32;;;2.50;;
72557;SDS011;60583;50.094;8.748;2023-01-01T12:21:24;6.80;;;1.90;;
72557;SDS011;60583;50.094;8.748;2023-01-01T12:23:52;5.63;;;2.33;;
72557;SDS011;60583;50.094;8.748;2023-01-01T12:31:42;7.70;;;2.60;;
72557;SDS011;60583;50.094;8.748;2023-01-01T12:34:27;5.85;;;2.10;;
72557;SDS011;60583;50.094;8.748;2023-01-01T12:40:36;8.70;;;2.40;;
72557;SDS011;60583;50.094;8.748;2023-01-01T12:43:18;6.20;;;2.10;;
72557;SDS011;60583;50.094;8.748;2023-01-01T12:45:52;5.95;;;2.25;;
72557;SDS011;60583;50.094;8.748;2023-01-01T12:54:10;5.95;;;1.83;;
72557;SDS011;60583;50.094;8.748;2023-01-01T12:57:00;5.90;;;2.15;;
72557;SDS011;60583;50.094;8.748;2023-01-01T12:59:40;8.15;;;2.10;;
72557;SDS011;60583;50.094;8.748;2023-01-01T13:02:11;6.63;;;2.30;;
72557;SDS011;60583;50.094;8.748;2023-01-01T13:04:42;7.43;;;2.50;;
72557;SDS011;60583;50.094;8.748;2023-01-01T13:07:10;9.55;;;2.83;;
72557;SDS011;60583;50.094;8.748;2023-01-01T13:09:38;6.55;;;2.28;;
72557;SDS011;60583;50.094;8.748;2023-01-01T13:12:06;8.25;;;3.85;;
72557;SDS011;60583;50.094;8.748;2023-01-01T13:17:02;7.07;;;2.28;;
72557;SDS011;60583;50.094;8.748;2023-01-01T13:19:31;6.40;;;2.45;;
72557;SDS011;60583;50.094;8.748;2023-01-01T13:33:15;4.75;;;2.10;;
72557;SDS011;60583;50.094;8.748;2023-01-01T13:38:43;5.85;;;1.98;;
72557;SDS011;60583;50.094;8.748;2023-01-01T13:43:51;8.63;;;2.47;;
72557;SDS011;60583;50.094;8.748;2023-01-01T13:46:18;7.00;;;2.22;;
72557;SDS011;60583;50.094;8.748;2023-01-01T13:51:35;7.03;;;2.60;;
72557;SDS011;60583;50.094;8.748;2023-01-01T14:00:13;5.47;;;2.22;;
72557;SDS011;60583;50.094;8.748;2023-01-01T14:02:48;7.32;;;2.10;;
72557;SDS011;60583;50.094;8.748;2023-01-01T14:05:32;6.60;;;2.30;;
72557;SDS011;60583;50.094;8.748;2023-01-01T14:08:02;6.90;;;2.45;;
72557;SDS011;60583;50.094;8.748;2023-01-01T14:10:31;6.10;;;2.20;;
72557;SDS011;60583;50.094;8.748;2023-01-01T14:15:30;5.43;;;2.60;;
72557;SDS011;60583;50.094;8.748;2023-01-01T14:18:02;5.75;;;2.10;;
72557;SDS011;60583;50.094;8.748;2023-01-01T14:20:32;6.20;;;2.58;;
72557;SDS011;60583;50.094;8.748;2023-01-01T14:23:03;8.70;;;2.60;;
72557;SDS011;60583;50.094;8.748;2023-01-01T14:25:31;5.45;;;2.22;;
72557;SDS011;60583;50.094;8.748;2023-01-01T14:27:57;8.05;;;3.00;;
72557;SDS011;60583;50.094;8.748;2023-01-01T14:30:23;7.07;;;2.88;;
72557;SDS011;60583;50.094;8.748;2023-01-01T14:32:56;7.28;;;2.47;;
72557;SDS011;60583;50.094;8.748;2023-01-01T14:35:23;6.10;;;2.20;;
72557;SDS011;60583;50.094;8.748;2023-01-01T14:37:49;6.05;;;2.50;;
72557;SDS011;60583;50.094;8.748;2023-01-01T14:40:23;8.68;;;2.85;;
72557;SDS011;60583;50.094;8.748;2023-01-01T14:42:54;8.00;;;2.97;;
72557;SDS011;60583;50.094;8.748;2023-01-01T14:45:22;7.60;;;3.08;;
72557;SDS011;60583;50.094;8.748;2023-01-01T14:47:49;6.40;;;2.75;;
72557;SDS011;60583;50.094;8.748;2023-01-01T14:53:05;5.00;;;2.25;;
72557;SDS011;60583;50.094;8.748;2023-01-01T14:55:39;6.95;;;2.50;;
72557;SDS011;60583;50.094;8.748;2023-01-01T14:58:17;7.63;;;2.60;;
72557;SDS011;60583;50.094;8.748;2023-01-01T15:00:46;8.00;;;2.70;;
72557;SDS011;60583;50.094;8.748;2023-01-01T15:03:19;6.15;;;2.50;;
72557;SDS011;60583;50.094;8.748;2023-01-01T15:05:59;7.47;;;2.30;;
72557;SDS011;60583;50.094;8.748;2023-01-01T15:08:26;6.35;;;2.70;;
72557;SDS011;60583;50.094;8.748;2023-01-01T15:10:51;8.95;;;2.97;;
72557;SDS011;60583;50.094;8.748;2023-01-01T15:13:20;5.88;;;2.45;;
72557;SDS011;60583;50.094;8.748;2023-01-01T15:15:54;5.93;;;2.60;;
72557;SDS011;60583;50.094;8.748;2023-01-01T15:18:39;7.90;;;3.25;;
72557;SDS011;60583;50.094;8.748;2023-01-01T15:26:23;7.68;;;2.75;;
72557;SDS011;60583;50.094;8.748;2023-01-01T15:28:52;7.70;;;2.63;;
72557;SDS011;60583;50.094;8.748;2023-01-01T15:31:18;7.75;;;2.97;;
72557;SDS011;60583;50.094;8.748;2023-01-01T15:33:46;8.07;;;3.13;;
72557;SDS011;60583;50.094;8.748;2023-01-01T15:36:12;6.45;;;2.58;;
72557;SDS011;60583;50.094;8.748;2023-01-01T15:38:39;6.57;;;2.53;;
72557;SDS011;60583;50.094;8.748;2023-01-01T15:44:31;6.88;;;2.67;;
72557;SDS011;60583;50.094;8.748;2023-01-01T15:47:04;7.45;;;3.10;;
72557;SDS011;60583;50.094;8.748;2023-01-01T15:49:37;8.68;;;2.75;;
72557;SDS011;60583;50.094;8.748;2023-01-01T15:52:03;6.63;;;2.72;;
72557;SDS011;60583;50.094;8.748;2023-01-01T15:54:38;7.65;;;2.70;;
72557;SDS011;60583;50.094;8.748;2023-01-01T15:57:18;8.15;;;3.13;;
72557;SDS011;60583;50.094;8.748;2023-01-01T15:59:45;6.70;;;2.33;;
72557;SDS011;60583;50.094;8.748;2023-01-01T16:02:14;10.38;;;4.00;;
72557;SDS011;60583;50.094;8.748;2023-01-01T16:04:48;6.35;;;3.08;;
72557;SDS011;60583;50.094;8.748;2023-01-01T16:07:16;9.55;;;3.20;;
72557;SDS011;60583;50.094;8.748;2023-01-01T16:09:44;9.63;;;2.92;;
72557;SDS011;60583;50.094;8.748;2023-01-01T16:12:10;7.82;;;2.92;;
72557;SDS011;60583;50.094;8.748;2023-01-01T16:14:36;8.73;;;3.15;;
72557;SDS011;60583;50.094;8.748;2023-01-01T16:17:01;8.18;;;3.00;;
72557;SDS011;60583;50.094;8.748;2023-01-01T16:19:28;9.55;;;4.15;;
72557;SDS011;60583;50.094;8.748;2023-01-01T16:21:55;8.32;;;3.30;;
72557;SDS011;60583;50.094;8.748;2023-01-01T16:24:20;9.63;;;4.50;;
72557;SDS011;60583;50.094;8.748;2023-01-01T16:26:46;9.77;;;3.58;;
72557;SDS011;60583;50.094;8.748;2023-01-01T16:29:11;7.00;;;3.60;;
72557;SDS011;60583;50.094;8.748;2023-01-01T16:31:37;9.45;;;3.97;;
72557;SDS011;60583;50.094;8.748;2023-01-01T16:34:03;10.43;;;4.20;;
72557;SDS011;60583;50.094;8.748;2023-01-01T16:36:29;10.35;;;4.20;;
72557;SDS011;60583;50.094;8.748;2023-01-01T16:38:55;9.18;;;3.20;;
72557;SDS011;60583;50.094;8.748;2023-01-01T16:41:21;9.13;;;2.88;;
72557;SDS011;60583;50.094;8.748;2023-01-01T16:43:47;10.50;;;3.78;;
72557;SDS011;60583;50.094;8.748;2023-01-01T16:46:13;9.10;;;3.70;;
72557;SDS011;60583;50.094;8.748;2023-01-01T16:48:39;7.80;;;3.50;;
72557;SDS011;60583;50.094;8.748;2023-01-01T16:51:05;9.23;;;3.63;;